Mattoon, Kentucky
Current Conditions -  °F | °C
As of 11:15 AM on Friday 31 Oct 2014 (Local Time) from K5M9 Reporting Station
Light Rain Light Rain  
Wind Chill: 39°   Ceiling: 1700
Heat Index: 46°   Visibility: 7mi
Dew Point: 40°   Wind: 17mph
Humidity: 80%   Direction: 360°N
Pressure: 30.1"   Gusts: 24mph
Location:  37.3359°N, 88.1049°W
Report Text: K5M9 311615Z AUTO 36015G21KT 7SM -RA BKN017 OVC021 08/04 A3010 RMK AO2 T00760044
Loading
Personal Weather Stations






























Interactive Weather Map
Tropical Storm Tracking
New forecast layout! Learn more

10-Day Weather Forecast

Advertisements
Track Severe Weather on mobile